sensor_id;sensor_type;location;lat;lon;timestamp;pressure;altitude;pressure_sealevel;temperature;humidity
72558;BME280;60583;50.094;8.748;2023-03-26T00:00:42;99877.91;;;8.99;78.91
72558;BME280;60583;50.094;8.748;2023-03-26T00:03:11;99859.91;;;8.88;78.39
72558;BME280;60583;50.094;8.748;2023-03-26T00:05:40;99876.69;;;9.02;79.35
72558;BME280;60583;50.094;8.748;2023-03-26T00:08:06;99877.94;;;9.06;78.32
72558;BME280;60583;50.094;8.748;2023-03-26T00:10:34;99879.78;;;9.06;78.15
72558;BME280;60583;50.094;8.748;2023-03-26T00:13:00;99873.84;;;9.04;78.25
72558;BME280;60583;50.094;8.748;2023-03-26T00:15:26;99881.19;;;9.02;79.07
72558;BME280;60583;50.094;8.748;2023-03-26T00:17:51;99886.50;;;9.02;78.65
72558;BME280;60583;50.094;8.748;2023-03-26T00:20:18;99889.00;;;9.03;78.67
72558;BME280;60583;50.094;8.748;2023-03-26T00:22:44;99880.78;;;8.98;79.43
72558;BME280;60583;50.094;8.748;2023-03-26T00:25:09;99882.84;;;8.96;79.79
72558;BME280;60583;50.094;8.748;2023-03-26T00:27:35;99887.13;;;8.97;79.99
72558;BME280;60583;50.094;8.748;2023-03-26T00:30:01;99841.03;;;8.70;80.03
72558;BME280;60583;50.094;8.748;2023-03-26T00:32:28;99878.09;;;8.91;79.69
72558;BME280;60583;50.094;8.748;2023-03-26T00:34:55;99858.81;;;8.76;79.73
72558;BME280;60583;50.094;8.748;2023-03-26T00:37:22;99888.94;;;8.96;79.70
72558;BME280;60583;50.094;8.748;2023-03-26T00:39:55;99854.72;;;8.74;79.85
72558;BME280;60583;50.094;8.748;2023-03-26T00:42:29;99887.91;;;8.84;80.74
72558;BME280;60583;50.094;8.748;2023-03-26T00:44:54;99866.34;;;8.66;80.67
72558;BME280;60583;50.094;8.748;2023-03-26T00:47:28;99891.38;;;8.85;80.40
72558;BME280;60583;50.094;8.748;2023-03-26T00:49:54;99882.75;;;8.76;80.62
72558;BME280;60583;50.094;8.748;2023-03-26T00:52:20;99880.53;;;8.80;81.10
72558;BME280;60583;50.094;8.748;2023-03-26T00:54:46;99856.16;;;8.70;80.28
72558;BME280;60583;50.094;8.748;2023-03-26T00:57:13;99898.34;;;8.86;80.75
72558;BME280;60583;50.094;8.748;2023-03-26T00:59:39;99886.06;;;8.78;81.01
72558;BME280;60583;50.094;8.748;2023-03-26T01:02:06;99881.75;;;8.84;80.75
72558;BME280;60583;50.094;8.748;2023-03-26T01:04:35;99884.44;;;8.90;80.34
72558;BME280;60583;50.094;8.748;2023-03-26T01:07:05;99853.72;;;8.75;79.95
72558;BME280;60583;50.094;8.748;2023-03-26T01:09:36;99867.22;;;8.73;80.84
72558;BME280;60583;50.094;8.748;2023-03-26T01:12:10;99870.94;;;8.85;80.85
72558;BME280;60583;50.094;8.748;2023-03-26T01:14:37;99862.75;;;8.80;80.27
72558;BME280;60583;50.094;8.748;2023-03-26T01:17:05;99863.75;;;8.79;80.31
72558;BME280;60583;50.094;8.748;2023-03-26T01:22:49;99845.97;;;8.73;80.29
72558;BME280;60583;50.094;8.748;2023-03-26T01:25:16;99847.97;;;8.65;81.13
72558;BME280;60583;50.094;8.748;2023-03-26T01:27:51;99777.13;;;8.31;81.02
72558;BME280;60583;50.094;8.748;2023-03-26T01:30:34;99841.81;;;8.58;81.30
72558;BME280;60583;50.094;8.748;2023-03-26T01:33:21;99813.16;;;8.47;81.30
72558;BME280;60583;50.094;8.748;2023-03-26T01:35:56;99832.41;;;8.62;80.63
72558;BME280;60583;50.094;8.748;2023-03-26T01:41:29;99821.78;;;8.62;80.28
72558;BME280;60583;50.094;8.748;2023-03-26T01:46:23;99812.53;;;8.45;81.00
72558;BME280;60583;50.094;8.748;2023-03-26T01:48:50;99791.66;;;8.35;80.99
72558;BME280;60583;50.094;8.748;2023-03-26T01:51:31;99811.94;;;8.49;80.93
72558;BME280;60583;50.094;8.748;2023-03-26T01:53:58;99824.81;;;8.52;81.31
72558;BME280;60583;50.094;8.748;2023-03-26T02:04:54;99809.28;;;8.49;81.79
72558;BME280;60583;50.094;8.748;2023-03-26T02:07:42;99782.03;;;8.34;81.53
72558;BME280;60583;50.094;8.748;2023-03-26T02:10:27;99798.47;;;8.51;81.39
72558;BME280;60583;50.094;8.748;2023-03-26T02:12:54;99765.91;;;8.36;81.91
72558;BME280;60583;50.094;8.748;2023-03-26T02:15:21;99770.22;;;8.43;82.24
72558;BME280;60583;50.094;8.748;2023-03-26T02:17:47;99773.72;;;8.50;81.67
72558;BME280;60583;50.094;8.748;2023-03-26T02:20:14;99780.25;;;8.54;82.04
72558;BME280;60583;50.094;8.748;2023-03-26T02:22:43;99771.06;;;8.50;82.38
72558;BME280;60583;50.094;8.748;2023-03-26T02:25:13;99771.06;;;8.57;81.56
72558;BME280;60583;50.094;8.748;2023-03-26T02:27:39;99765.31;;;8.47;82.38
72558;BME280;60583;50.094;8.748;2023-03-26T02:30:06;99761.25;;;8.51;82.71
72558;BME280;60583;50.094;8.748;2023-03-26T02:32:32;99764.13;;;8.56;82.53
72558;BME280;60583;50.094;8.748;2023-03-26T02:34:59;99770.25;;;8.56;82.34
72558;BME280;60583;50.094;8.748;2023-03-26T02:37:25;99740.41;;;8.48;82.07
72558;BME280;60583;50.094;8.748;2023-03-26T02:39:51;99721.56;;;8.36;81.86
72558;BME280;60583;50.094;8.748;2023-03-26T02:42:16;99715.03;;;8.39;82.53
72558;BME280;60583;50.094;8.748;2023-03-26T02:44:42;99703.19;;;8.41;81.56
72558;BME280;60583;50.094;8.748;2023-03-26T02:47:07;99729.78;;;8.48;81.93
72558;BME280;60583;50.094;8.748;2023-03-26T02:49:33;99703.19;;;8.41;82.32
72558;BME280;60583;50.094;8.748;2023-03-26T02:51:59;99726.13;;;8.55;81.93
72558;BME280;60583;50.094;8.748;2023-03-26T02:54:25;99700.13;;;8.38;81.51
72558;BME280;60583;50.094;8.748;2023-03-26T02:56:50;99719.34;;;8.46;82.19
72558;BME280;60583;50.094;8.748;2023-03-26T02:59:16;99691.94;;;8.39;81.70
72558;BME280;60583;50.094;8.748;2023-03-26T03:01:41;99690.53;;;8.43;81.85
72558;BME280;60583;50.094;8.748;2023-03-26T03:04:10;99724.47;;;8.54;81.89
72558;BME280;60583;50.094;8.748;2023-03-26T03:06:36;99715.47;;;8.55;81.96
72558;BME280;60583;50.094;8.748;2023-03-26T03:09:06;99716.50;;;8.54;81.72
72558;BME280;60583;50.094;8.748;2023-03-26T03:11:36;99719.38;;;8.59;81.99
72558;BME280;60583;50.094;8.748;2023-03-26T03:14:02;99721.41;;;8.57;81.65
72558;BME280;60583;50.094;8.748;2023-03-26T03:16:28;99694.63;;;8.52;82.19
72558;BME280;60583;50.094;8.748;2023-03-26T03:18:53;99715.09;;;8.58;81.70
72558;BME280;60583;50.094;8.748;2023-03-26T03:21:21;99724.69;;;8.59;82.16
72558;BME280;60583;50.094;8.748;2023-03-26T03:23:47;99710.16;;;8.55;82.79
72558;BME280;60583;50.094;8.748;2023-03-26T03:26:15;99649.59;;;8.18;82.43
72558;BME280;60583;50.094;8.748;2023-03-26T03:28:41;99697.06;;;8.47;82.73
72558;BME280;60583;50.094;8.748;2023-03-26T03:31:06;99684.59;;;8.41;82.75
72558;BME280;60583;50.094;8.748;2023-03-26T03:33:33;99700.56;;;8.54;82.50
72558;BME280;60583;50.094;8.748;2023-03-26T03:35:59;99687.66;;;8.51;83.42
72558;BME280;60583;50.094;8.748;2023-03-26T03:38:25;99687.66;;;8.51;84.03
72558;BME280;60583;50.094;8.748;2023-03-26T03:40:50;99668.06;;;8.46;83.66
72558;BME280;60583;50.094;8.748;2023-03-26T03:43:18;99679.50;;;8.59;83.16
72558;BME280;60583;50.094;8.748;2023-03-26T03:45:44;99629.41;;;8.30;83.85
72558;BME280;60583;50.094;8.748;2023-03-26T03:48:09;99655.38;;;8.41;83.95
72558;BME280;60583;50.094;8.748;2023-03-26T03:50:35;99652.13;;;8.46;83.85
72558;BME280;60583;50.094;8.748;2023-03-26T03:53:01;99642.69;;;8.37;84.46
72558;BME280;60583;50.094;8.748;2023-03-26T03:55:27;99655.19;;;8.56;84.23
72558;BME280;60583;50.094;8.748;2023-03-26T03:57:53;99634.09;;;8.41;84.05
72558;BME280;60583;50.094;8.748;2023-03-26T04:00:19;99648.88;;;8.63;84.37
72558;BME280;60583;50.094;8.748;2023-03-26T04:02:44;99657.81;;;8.49;85.24
72558;BME280;60583;50.094;8.748;2023-03-26T04:05:11;99659.47;;;8.50;85.26
72558;BME280;60583;50.094;8.748;2023-03-26T04:07:36;99622.22;;;8.24;86.29
72558;BME280;60583;50.094;8.748;2023-03-26T04:10:03;99629.81;;;8.27;87.50
72558;BME280;60583;50.094;8.748;2023-03-26T04:12:29;99643.84;;;8.21;88.16
72558;BME280;60583;50.094;8.748;2023-03-26T04:14:56;99644.50;;;8.23;88.19
72558;BME280;60583;50.094;8.748;2023-03-26T04:17:21;99636.56;;;8.29;88.05
72558;BME280;60583;50.094;8.748;2023-03-26T04:19:48;99621.59;;;8.22;87.75
72558;BME280;60583;50.094;8.748;2023-03-26T04:22:15;99638.41;;;8.42;87.37
72558;BME280;60583;50.094;8.748;2023-03-26T04:24:44;99640.84;;;8.44;86.97
72558;BME280;60583;50.094;8.748;2023-03-26T04:27:16;99642.28;;;8.40;88.03
72558;BME280;60583;50.094;8.748;2023-03-26T04:29:46;99598.31;;;8.24;88.09
72558;BME280;60583;50.094;8.748;2023-03-26T04:32:32;99628.41;;;8.44;88.84
72558;BME280;60583;50.094;8.748;2023-03-26T04:34:59;99620.22;;;8.39;88.65
72558;BME280;60583;50.094;8.748;2023-03-26T04:37:30;99611.66;;;8.30;88.62
72558;BME280;60583;50.094;8.748;2023-03-26T04:40:02;99583.00;;;8.13;88.65
72558;BME280;60583;50.094;8.748;2023-03-26T04:42:32;99602.47;;;8.33;88.49
72558;BME280;60583;50.094;8.748;2023-03-26T04:44:57;99594.66;;;8.25;89.11
72558;BME280;60583;50.094;8.748;2023-03-26T04:47:24;99597.16;;;8.33;88.16
72558;BME280;60583;50.094;8.748;2023-03-26T04:49:52;99591.56;;;8.21;88.53
72558;BME280;60583;50.094;8.748;2023-03-26T04:52:18;99577.28;;;8.22;88.21
72558;BME280;60583;50.094;8.748;2023-03-26T04:54:44;99572.81;;;8.29;88.27
72558;BME280;60583;50.094;8.748;2023-03-26T04:57:22;99549.09;;;8.15;88.13
72558;BME280;60583;50.094;8.748;2023-03-26T04:59:50;99543.97;;;8.00;89.03
72558;BME280;60583;50.094;8.748;2023-03-26T05:02:16;99563.59;;;8.19;89.06
72558;BME280;60583;50.094;8.748;2023-03-26T05:04:42;99545.59;;;8.01;89.16
72558;BME280;60583;50.094;8.748;2023-03-26T05:07:10;99571.38;;;8.27;88.67
72558;BME280;60583;50.094;8.748;2023-03-26T05:09:40;99530.06;;;7.92;89.94
72558;BME280;60583;50.094;8.748;2023-03-26T05:12:06;99545.81;;;8.06;89.65
72558;BME280;60583;50.094;8.748;2023-03-26T05:14:31;99528.06;;;8.00;88.85
72558;BME280;60583;50.094;8.748;2023-03-26T05:16:57;99537.88;;;8.13;88.34
72558;BME280;60583;50.094;8.748;2023-03-26T05:19:23;99546.69;;;8.33;87.99
72558;BME280;60583;50.094;8.748;2023-03-26T05:21:48;99544.03;;;8.33;88.27
72558;BME280;60583;50.094;8.748;2023-03-26T05:24:13;99529.88;;;8.26;87.40
72558;BME280;60583;50.094;8.748;2023-03-26T05:26:39;99517.84;;;8.37;88.68
72558;BME280;60583;50.094;8.748;2023-03-26T05:29:05;99465.13;;;8.14;88.29
72558;BME280;60583;50.094;8.748;2023-03-26T05:31:30;99466.97;;;8.20;87.90
72558;BME280;60583;50.094;8.748;2023-03-26T05:33:57;99483.72;;;8.33;88.26
72558;BME280;60583;50.094;8.748;2023-03-26T05:36:24;99499.88;;;8.32;88.68
72558;BME280;60583;50.094;8.748;2023-03-26T05:38:50;99491.47;;;8.22;89.31
72558;BME280;60583;50.094;8.748;2023-03-26T05:41:16;99473.50;;;8.11;89.88
72558;BME280;60583;50.094;8.748;2023-03-26T05:43:42;99491.69;;;8.20;88.87
72558;BME280;60583;50.094;8.748;2023-03-26T05:46:10;99481.25;;;8.19;89.80
72558;BME280;60583;50.094;8.748;2023-03-26T05:48:35;99489.88;;;8.34;89.52
72558;BME280;60583;50.094;8.748;2023-03-26T05:51:02;99458.00;;;8.08;89.42
72558;BME280;60583;50.094;8.748;2023-03-26T05:53:28;99481.66;;;8.16;90.14
72558;BME280;60583;50.094;8.748;2023-03-26T05:55:53;99469.44;;;8.15;89.55
72558;BME280;60583;50.094;8.748;2023-03-26T05:58:26;99444.72;;;8.08;90.03
72558;BME280;60583;50.094;8.748;2023-03-26T06:01:00;99459.22;;;8.25;90.22
72558;BME280;60583;50.094;8.748;2023-03-26T06:03:34;99453.28;;;8.36;89.47
72558;BME280;60583;50.094;8.748;2023-03-26T06:06:00;99467.59;;;8.28;89.76
72558;BME280;60583;50.094;8.748;2023-03-26T06:08:25;99476.56;;;8.47;88.78
72558;BME280;60583;50.094;8.748;2023-03-26T06:11:04;99436.72;;;8.21;88.94
72558;BME280;60583;50.094;8.748;2023-03-26T06:13:32;99472.69;;;8.37;90.12
72558;BME280;60583;50.094;8.748;2023-03-26T06:15:58;99462.28;;;8.22;89.88
72558;BME280;60583;50.094;8.748;2023-03-26T06:18:24;99457.97;;;8.21;88.87
72558;BME280;60583;50.094;8.748;2023-03-26T06:20:51;99445.94;;;8.25;89.52
72558;BME280;60583;50.094;8.748;2023-03-26T06:23:17;99409.00;;;8.10;89.46
72558;BME280;60583;50.094;8.748;2023-03-26T06:25:43;99436.91;;;8.26;89.48
72558;BME280;60583;50.094;8.748;2023-03-26T06:28:10;99406.31;;;8.17;87.88
72558;BME280;60583;50.094;8.748;2023-03-26T06:30:36;99424.50;;;8.33;88.54
72558;BME280;60583;50.094;8.748;2023-03-26T06:33:02;99427.34;;;8.38;87.59
72558;BME280;60583;50.094;8.748;2023-03-26T06:35:28;99358.53;;;8.10;88.23
72558;BME280;60583;50.094;8.748;2023-03-26T06:37:55;99414.66;;;8.47;88.06
72558;BME280;60583;50.094;8.748;2023-03-26T06:40:20;99408.94;;;8.43;87.24
72558;BME280;60583;50.094;8.748;2023-03-26T06:42:46;99405.00;;;8.59;86.98
72558;BME280;60583;50.094;8.748;2023-03-26T06:45:12;99383.19;;;8.50;86.39
72558;BME280;60583;50.094;8.748;2023-03-26T06:47:37;99391.28;;;8.62;86.79
72558;BME280;60583;50.094;8.748;2023-03-26T06:50:03;99359.91;;;8.46;87.00
72558;BME280;60583;50.094;8.748;2023-03-26T06:52:28;99390.91;;;8.58;86.90
72558;BME280;60583;50.094;8.748;2023-03-26T06:54:54;99372.91;;;8.60;87.09
72558;BME280;60583;50.094;8.748;2023-03-26T06:57:20;99368.81;;;8.64;86.10
72558;BME280;60583;50.094;8.748;2023-03-26T06:59:45;99382.50;;;8.61;86.31
72558;BME280;60583;50.094;8.748;2023-03-26T07:02:11;99362.75;;;8.44;86.92
72558;BME280;60583;50.094;8.748;2023-03-26T07:04:36;99397.44;;;8.62;87.86
72558;BME280;60583;50.094;8.748;2023-03-26T07:07:02;99391.47;;;8.73;86.80
72558;BME280;60583;50.094;8.748;2023-03-26T07:09:28;99374.75;;;8.60;87.09
72558;BME280;60583;50.094;8.748;2023-03-26T07:11:57;99383.88;;;8.77;86.66
72558;BME280;60583;50.094;8.748;2023-03-26T07:14:23;99375.91;;;8.77;87.04
72558;BME280;60583;50.094;8.748;2023-03-26T07:16:50;99357.34;;;8.70;87.04
72558;BME280;60583;50.094;8.748;2023-03-26T07:19:16;99342.59;;;8.74;85.69
72558;BME280;60583;50.094;8.748;2023-03-26T07:21:42;99379.69;;;9.01;85.67
72558;BME280;60583;50.094;8.748;2023-03-26T07:24:11;99377.22;;;8.99;86.08
72558;BME280;60583;50.094;8.748;2023-03-26T07:29:22;99367.09;;;8.76;87.08
72558;BME280;60583;50.094;8.748;2023-03-26T07:32:16;99360.47;;;8.92;86.29
72558;BME280;60583;50.094;8.748;2023-03-26T07:34:52;99353.81;;;8.76;87.28
72558;BME280;60583;50.094;8.748;2023-03-26T07:37:31;99361.34;;;8.86;87.31
72558;BME280;60583;50.094;8.748;2023-03-26T07:42:47;99351.28;;;8.94;87.91
72558;BME280;60583;50.094;8.748;2023-03-26T07:45:41;99346.19;;;8.86;89.05
72558;BME280;60583;50.094;8.748;2023-03-26T07:50:44;99329.09;;;8.76;91.22
72558;BME280;60583;50.094;8.748;2023-03-26T07:53:10;99325.09;;;8.60;92.16
72558;BME280;60583;50.094;8.748;2023-03-26T07:55:42;99323.38;;;8.72;91.95
72558;BME280;60583;50.094;8.748;2023-03-26T07:58:45;99322.97;;;8.69;92.62
72558;BME280;60583;50.094;8.748;2023-03-26T08:04:38;99316.47;;;8.65;94.37
72558;BME280;60583;50.094;8.748;2023-03-26T08:10:01;99287.81;;;8.73;94.55
72558;BME280;60583;50.094;8.748;2023-03-26T08:12:44;99272.53;;;8.62;94.49
72558;BME280;60583;50.094;8.748;2023-03-26T08:17:50;99284.94;;;8.37;96.34
72558;BME280;60583;50.094;8.748;2023-03-26T08:26:38;99292.59;;;8.58;96.70
72558;BME280;60583;50.094;8.748;2023-03-26T08:29:00;99292.25;;;8.48;97.22
72558;BME280;60583;50.094;8.748;2023-03-26T08:31:36;99296.53;;;8.49;96.85
72558;BME280;60583;50.094;8.748;2023-03-26T08:34:04;99234.19;;;8.07;98.28
72558;BME280;60583;50.094;8.748;2023-03-26T08:36:29;99251.66;;;8.34;97.24
72558;BME280;60583;50.094;8.748;2023-03-26T08:38:55;99297.81;;;8.71;97.31
72558;BME280;60583;50.094;8.748;2023-03-26T08:47:39;99283.53;;;8.72;96.88
72558;BME280;60583;50.094;8.748;2023-03-26T09:04:04;99235.38;;;8.18;99.48
72558;BME280;60583;50.094;8.748;2023-03-26T09:13:05;99230.88;;;8.12;100.00
72558;BME280;60583;50.094;8.748;2023-03-26T09:16:08;99262.28;;;8.34;100.00
72558;BME280;60583;50.094;8.748;2023-03-26T09:24:34;99262.38;;;8.53;100.00
72558;BME280;60583;50.094;8.748;2023-03-26T09:27:34;99268.06;;;8.56;99.20
72558;BME280;60583;50.094;8.748;2023-03-26T09:33:16;99253.25;;;8.42;98.67
72558;BME280;60583;50.094;8.748;2023-03-26T09:36:08;99254.59;;;8.58;98.46
72558;BME280;60583;50.094;8.748;2023-03-26T09:38:49;99227.44;;;8.56;96.32
72558;BME280;60583;50.094;8.748;2023-03-26T09:41:54;99242.41;;;8.75;94.69
72558;BME280;60583;50.094;8.748;2023-03-26T09:52:50;99232.44;;;8.70;93.86
72558;BME280;60583;50.094;8.748;2023-03-26T09:55:32;99224.31;;;8.59;95.80
72558;BME280;60583;50.094;8.748;2023-03-26T10:07:02;99213.75;;;8.52;95.64
72558;BME280;60583;50.094;8.748;2023-03-26T10:12:14;99215.44;;;8.71;95.79
72558;BME280;60583;50.094;8.748;2023-03-26T10:17:39;99201.47;;;8.58;94.86
72558;BME280;60583;50.094;8.748;2023-03-26T10:20:32;99204.13;;;8.51;93.81
72558;BME280;60583;50.094;8.748;2023-03-26T10:28:40;99204.81;;;8.71;92.09
72558;BME280;60583;50.094;8.748;2023-03-26T10:31:35;99191.00;;;8.87;91.21
72558;BME280;60583;50.094;8.748;2023-03-26T10:34:29;99197.06;;;9.19;90.80
72558;BME280;60583;50.094;8.748;2023-03-26T10:37:13;99181.50;;;9.95;86.51
72558;BME280;60583;50.094;8.748;2023-03-26T10:45:17;99180.38;;;12.46;73.87
72558;BME280;60583;50.094;8.748;2023-03-26T10:52:52;99116.88;;;12.08;73.80
72558;BME280;60583;50.094;8.748;2023-03-26T10:55:29;99168.56;;;11.74;77.68
72558;BME280;60583;50.094;8.748;2023-03-26T10:58:21;99163.25;;;10.93;79.27
72558;BME280;60583;50.094;8.748;2023-03-26T11:01:02;99172.69;;;11.07;80.42
72558;BME280;60583;50.094;8.748;2023-03-26T11:09:02;99110.84;;;10.64;82.01
72558;BME280;60583;50.094;8.748;2023-03-26T11:11:37;99152.22;;;10.66;81.73
72558;BME280;60583;50.094;8.748;2023-03-26T11:14:16;99157.31;;;10.56;82.15
72558;BME280;60583;50.094;8.748;2023-03-26T11:19:33;99143.03;;;10.51;81.53
72558;BME280;60583;50.094;8.748;2023-03-26T11:22:02;99140.69;;;10.43;81.64
72558;BME280;60583;50.094;8.748;2023-03-26T11:32:23;99073.69;;;9.86;84.55
72558;BME280;60583;50.094;8.748;2023-03-26T11:37:41;99145.03;;;10.14;84.26
72558;BME280;60583;50.094;8.748;2023-03-26T11:40:13;99132.66;;;10.19;84.33
72558;BME280;60583;50.094;8.748;2023-03-26T11:42:45;99126.91;;;10.04;85.03
72558;BME280;60583;50.094;8.748;2023-03-26T11:45:15;99132.03;;;10.17;84.96
72558;BME280;60583;50.094;8.748;2023-03-26T11:47:49;99116.56;;;10.26;84.88
72558;BME280;60583;50.094;8.748;2023-03-26T11:50:20;99129.13;;;10.49;84.29
72558;BME280;60583;50.094;8.748;2023-03-26T11:52:46;99107.81;;;10.49;83.19
72558;BME280;60583;50.094;8.748;2023-03-26T11:55:12;99128.81;;;10.80;83.91
72558;BME280;60583;50.094;8.748;2023-03-26T11:57:41;99090.56;;;10.86;82.50
72558;BME280;60583;50.094;8.748;2023-03-26T12:00:13;99106.63;;;12.17;77.92
72558;BME280;60583;50.094;8.748;2023-03-26T12:02:44;99099.72;;;14.66;68.54
72558;BME280;60583;50.094;8.748;2023-03-26T12:07:53;99092.63;;;15.28;62.94
72558;BME280;60583;50.094;8.748;2023-03-26T12:12:58;99079.56;;;13.13;69.32
72558;BME280;60583;50.094;8.748;2023-03-26T12:15:24;99077.31;;;12.89;70.41
72558;BME280;60583;50.094;8.748;2023-03-26T12:17:56;99063.88;;;12.50;71.72
72558;BME280;60583;50.094;8.748;2023-03-26T12:22:50;99092.50;;;12.05;75.49
72558;BME280;60583;50.094;8.748;2023-03-26T12:25:19;99098.59;;;11.89;75.53
72558;BME280;60583;50.094;8.748;2023-03-26T12:27:51;99082.63;;;11.37;78.99
72558;BME280;60583;50.094;8.748;2023-03-26T12:30:26;99097.81;;;11.25;80.45
72558;BME280;60583;50.094;8.748;2023-03-26T12:33:02;99099.38;;;10.98;82.41
72558;BME280;60583;50.094;8.748;2023-03-26T12:35:30;99089.50;;;11.10;81.52
72558;BME280;60583;50.094;8.748;2023-03-26T12:38:32;99087.88;;;11.09;82.85
72558;BME280;60583;50.094;8.748;2023-03-26T12:41:16;99084.91;;;11.45;83.16
72558;BME280;60583;50.094;8.748;2023-03-26T12:43:47;99066.19;;;11.17;83.94
72558;BME280;60583;50.094;8.748;2023-03-26T12:46:29;99062.84;;;11.90;81.60
72558;BME280;60583;50.094;8.748;2023-03-26T12:49:03;99073.41;;;13.56;73.34
72558;BME280;60583;50.094;8.748;2023-03-26T12:51:48;99063.91;;;14.82;68.63
72558;BME280;60583;50.094;8.748;2023-03-26T13:02:45;99003.34;;;15.06;65.29
72558;BME280;60583;50.094;8.748;2023-03-26T13:10:47;99034.50;;;12.89;74.75
72558;BME280;60583;50.094;8.748;2023-03-26T13:13:38;99040.91;;;12.88;74.75
72558;BME280;60583;50.094;8.748;2023-03-26T13:21:40;99039.19;;;12.81;75.58
72558;BME280;60583;50.094;8.748;2023-03-26T13:24:25;99030.31;;;12.76;75.43
72558;BME280;60583;50.094;8.748;2023-03-26T13:27:08;99016.56;;;12.51;77.99
72558;BME280;60583;50.094;8.748;2023-03-26T13:29:58;99023.44;;;12.63;77.45
72558;BME280;60583;50.094;8.748;2023-03-26T13:35:38;99026.91;;;13.02;76.66
72558;BME280;60583;50.094;8.748;2023-03-26T13:38:13;98981.34;;;12.75;76.37
72558;BME280;60583;50.094;8.748;2023-03-26T13:49:08;99000.84;;;12.21;76.59
72558;BME280;60583;50.094;8.748;2023-03-26T13:51:42;99022.06;;;12.11;78.61
72558;BME280;60583;50.094;8.748;2023-03-26T13:54:19;99027.66;;;11.93;81.19
72558;BME280;60583;50.094;8.748;2023-03-26T13:56:50;99019.38;;;11.94;82.88
72558;BME280;60583;50.094;8.748;2023-03-26T14:00:23;98987.50;;;11.60;81.33
72558;BME280;60583;50.094;8.748;2023-03-26T14:02:29;99006.97;;;11.72;79.82
72558;BME280;60583;50.094;8.748;2023-03-26T14:05:04;98999.94;;;11.82;78.55
72558;BME280;60583;50.094;8.748;2023-03-26T14:07:48;98993.47;;;11.50;80.50
72558;BME280;60583;50.094;8.748;2023-03-26T14:10:27;99016.94;;;11.36;81.71
72558;BME280;60583;50.094;8.748;2023-03-26T14:12:58;99017.28;;;11.40;81.01
72558;BME280;60583;50.094;8.748;2023-03-26T14:15:30;99003.13;;;11.39;81.38
72558;BME280;60583;50.094;8.748;2023-03-26T14:18:06;99010.94;;;11.58;79.10
72558;BME280;60583;50.094;8.748;2023-03-26T14:29:27;98990.72;;;11.62;75.54
72558;BME280;60583;50.094;8.748;2023-03-26T14:35:30;98962.31;;;11.55;75.48
72558;BME280;60583;50.094;8.748;2023-03-26T14:40:57;98993.22;;;11.80;73.45
72558;BME280;60583;50.094;8.748;2023-03-26T14:43:46;98982.84;;;11.83;72.71
72558;BME280;60583;50.094;8.748;2023-03-26T14:51:57;98985.81;;;12.15;72.00
72558;BME280;60583;50.094;8.748;2023-03-26T14:54:27;98935.91;;;12.04;70.92
72558;BME280;60583;50.094;8.748;2023-03-26T14:57:21;98953.41;;;12.11;69.95
72558;BME280;60583;50.094;8.748;2023-03-26T15:11:28;98938.44;;;12.10;66.76
72558;BME280;60583;50.094;8.748;2023-03-26T15:20:24;98939.56;;;12.14;65.05
72558;BME280;60583;50.094;8.748;2023-03-26T15:29:23;98917.59;;;12.29;59.77
72558;BME280;60583;50.094;8.748;2023-03-26T15:35:17;98935.88;;;12.37;58.04
72558;BME280;60583;50.094;8.748;2023-03-26T15:38:12;98944.47;;;12.39;58.14
72558;BME280;60583;50.094;8.748;2023-03-26T15:46:31;98964.88;;;12.45;59.16
72558;BME280;60583;50.094;8.748;2023-03-26T15:49:20;98962.47;;;12.27;58.44
72558;BME280;60583;50.094;8.748;2023-03-26T15:52:15;98970.47;;;12.27;59.80
72558;BME280;60583;50.094;8.748;2023-03-26T15:54:56;98973.66;;;12.07;62.00
72558;BME280;60583;50.094;8.748;2023-03-26T15:57:30;98980.59;;;11.75;62.00
72558;BME280;60583;50.094;8.748;2023-03-26T16:00:20;99016.88;;;11.88;62.44
72558;BME280;60583;50.094;8.748;2023-03-26T16:02:55;98996.69;;;11.52;61.97
72558;BME280;60583;50.094;8.748;2023-03-26T16:09:22;99086.56;;;10.42;70.86
72558;BME280;60583;50.094;8.748;2023-03-26T16:11:55;99044.75;;;9.60;73.66
72558;BME280;60583;50.094;8.748;2023-03-26T16:16:59;99097.25;;;9.53;78.34
72558;BME280;60583;50.094;8.748;2023-03-26T16:19:33;99068.91;;;9.29;79.94
72558;BME280;60583;50.094;8.748;2023-03-26T16:22:04;99087.50;;;9.47;80.22
72558;BME280;60583;50.094;8.748;2023-03-26T16:24:33;99071.91;;;9.14;81.42
72558;BME280;60583;50.094;8.748;2023-03-26T16:30:06;99054.41;;;9.07;82.60
72558;BME280;60583;50.094;8.748;2023-03-26T16:32:35;99089.13;;;9.12;82.76
72558;BME280;60583;50.094;8.748;2023-03-26T16:38:03;99086.94;;;9.09;84.11
72558;BME280;60583;50.094;8.748;2023-03-26T16:40:50;99088.97;;;8.88;86.09
72558;BME280;60583;50.094;8.748;2023-03-26T16:46:13;99107.28;;;8.96;85.83
72558;BME280;60583;50.094;8.748;2023-03-26T16:52:20;99099.59;;;8.88;86.03
72558;BME280;60583;50.094;8.748;2023-03-26T16:54:55;99099.88;;;8.80;86.94
72558;BME280;60583;50.094;8.748;2023-03-26T17:02:56;99102.53;;;8.80;86.50
72558;BME280;60583;50.094;8.748;2023-03-26T17:14:11;99094.34;;;8.82;87.64
72558;BME280;60583;50.094;8.748;2023-03-26T17:16:46;99079.13;;;8.71;87.60
72558;BME280;60583;50.094;8.748;2023-03-26T17:19:38;99106.19;;;8.86;87.28
72558;BME280;60583;50.094;8.748;2023-03-26T17:22:27;99104.78;;;8.83;86.85
72558;BME280;60583;50.094;8.748;2023-03-26T17:25:20;99112.75;;;8.83;86.59
72558;BME280;60583;50.094;8.748;2023-03-26T17:30:59;99118.13;;;8.95;85.56
72558;BME280;60583;50.094;8.748;2023-03-26T17:33:33;99116.72;;;8.92;85.42
72558;BME280;60583;50.094;8.748;2023-03-26T17:41:06;99117.47;;;8.99;85.27
72558;BME280;60583;50.094;8.748;2023-03-26T17:46:19;99057.72;;;8.66;84.99
72558;BME280;60583;50.094;8.748;2023-03-26T17:48:53;99097.97;;;8.87;85.56
72558;BME280;60583;50.094;8.748;2023-03-26T17:51:33;99117.91;;;8.96;85.93
72558;BME280;60583;50.094;8.748;2023-03-26T17:54:06;99124.63;;;8.99;86.51
72558;BME280;60583;50.094;8.748;2023-03-26T17:56:33;99087.78;;;8.84;86.54
72558;BME280;60583;50.094;8.748;2023-03-26T17:59:04;99128.13;;;8.99;85.93
72558;BME280;60583;50.094;8.748;2023-03-26T18:01:35;99132.56;;;9.06;85.34